LFOP/URO METAR and TAF weather

Enter ICAO airport designator
Station Type Date Time Source
LFOP METAR 2019/06/19 01:30 UTC NOAA

LFOP 190130Z AUTO 05009KT CAVOK 18/13 Q1007


Station Type Date Time Source
LFOP Decoded METAR 2019/06/19 01:30 UTC NOAA

Rouen, France (LFOP) 49-23N 001-11E 157M
Jun 18, 2019 - 09:30 PM EDT / 2019.06.19 0130 UTC
Wind: from the NE (050 degrees) at 10 MPH (9 KT):0
Visibility: greater than 7 mile(s):0
Temperature: 64 F (18 C)
Dew Point: 55 F (13 C)
Relative Humidity: 72%
Pressure (altimeter): 29.74 in. Hg (1007 hPa)
ob: LFOP 190130Z AUTO 05009KT CAVOK 18/13 Q1007
cycle: 1

Station Type Date Time Source
LFOP TAF 2019/06/18 20:13 UTC NOAA

TAF LFOP 182000Z 1820/1918 CNL

Example: see airport list